Time;durP1;ratioP1;P1;durP2;ratioP2;P2;SDS_P1;SDS_P2;PMS_P1;PMS_P2;Temp;Humidity;BMP_temperature;BMP_pressure;BME280_temperature;BME280_humidity;BME280_pressure;Samples;Min_cycle;Max_cycle;Signal;HPM_P1;HPM_P2
2021/08/24 04:32:29;;;;;;;7.83;6.13;;;11.60;99.90;;;;;;5135108;23;20505;-82
2021/08/24 04:34:55;;;;;;;6.23;5.63;;;11.60;99.90;;;;;;4933740;29;20467;-83
2021/08/24 04:37:22;;;;;;;8.93;6.27;;;11.60;99.90;;;;;;4944178;29;20534;-84
2021/08/24 04:39:48;;;;;;;7.67;5.97;;;11.50;99.90;;;;;;4948845;28;20441;-83
2021/08/24 04:42:14;;;;;;;7.70;7.00;;;11.50;99.90;;;;;;4927134;29;20536;-84
2021/08/24 04:44:39;;;;;;;8.30;5.90;;;11.50;99.90;;;;;;4937383;29;20228;-84
2021/08/24 04:47:05;;;;;;;7.87;7.13;;;11.60;99.90;;;;;;4936943;29;20281;-84
2021/08/24 04:49:31;;;;;;;7.60;6.00;;;11.60;99.90;;;;;;4955894;29;20211;-85
2021/08/24 04:51:56;;;;;;;13.10;8.63;;;11.60;99.90;;;;;;4940300;28;20213;-83
2021/08/24 04:54:22;;;;;;;7.17;6.47;;;11.60;99.90;;;;;;4936843;29;20481;-84
2021/08/24 04:56:47;;;;;;;19.63;8.27;;;11.60;99.90;;;;;;4947401;29;20195;-84
2021/08/24 04:59:13;;;;;;;9.93;8.00;;;11.60;99.90;;;;;;4948665;28;20196;-83
2021/08/24 05:01:38;;;;;;;9.80;6.40;;;11.60;99.90;;;;;;4942503;28;20201;-77
2021/08/24 05:04:04;;;;;;;8.03;7.30;;;11.60;99.90;;;;;;4930487;29;20193;-77
2021/08/24 05:06:30;;;;;;;9.47;7.73;;;11.70;99.90;;;;;;4944631;28;20189;-77
2021/08/24 05:08:55;;;;;;;11.23;7.00;;;11.70;99.90;;;;;;4933915;29;20190;-78
2021/08/24 05:11:21;;;;;;;12.10;8.60;;;11.70;99.90;;;;;;4944949;29;20292;-77
2021/08/24 05:13:47;;;;;;;9.20;8.30;;;11.70;99.90;;;;;;4940272;29;20261;-77
2021/08/24 05:16:13;;;;;;;13.30;8.37;;;11.70;99.90;;;;;;4941810;28;20542;-77
2021/08/24 05:18:39;;;;;;;9.27;7.70;;;11.80;99.90;;;;;;4938964;29;20429;-76
2021/08/24 05:21:10;;;;;;;14.50;7.13;;;11.90;99.90;;;;;;4939780;29;20217;-77
2021/08/24 05:23:37;;;;;;;10.17;7.40;;;12.00;99.90;;;;;;4939190;29;20436;-77
2021/08/24 05:26:07;;;;;;;9.73;7.10;;;12.00;99.90;;;;;;4937083;29;20949;-77
2021/08/24 05:28:33;;;;;;;8.17;7.47;;;12.10;99.90;;;;;;4938713;29;20437;-77
2021/08/24 05:30:58;;;;;;;12.83;7.30;;;12.20;99.90;;;;;;4945547;29;20983;-77
2021/08/24 05:33:24;;;;;;;11.67;7.87;;;12.20;99.90;;;;;;4938024;29;20623;-77
2021/08/24 05:35:49;;;;;;;8.63;7.90;;;12.30;99.90;;;;;;4932632;29;20217;-77
2021/08/24 05:38:15;;;;;;;8.10;7.30;;;12.40;99.90;;;;;;4954246;29;20190;-77
2021/08/24 05:40:42;;;;;;;7.23;6.47;;;12.50;99.90;;;;;;4946372;28;20208;-77
2021/08/24 05:43:07;;;;;;;10.33;8.33;;;12.50;99.90;;;;;;4958367;28;20782;-77
2021/08/24 05:45:33;;;;;;;10.30;8.37;;;12.60;99.90;;;;;;4947720;28;20185;-76
2021/08/24 05:47:58;;;;;;;8.87;7.97;;;12.70;99.90;;;;;;4950565;28;20232;-76
2021/08/24 05:50:26;;;;;;;7.70;6.97;;;12.70;99.90;;;;;;4946344;29;20626;-76
2021/08/24 05:52:52;;;;;;;9.07;8.17;;;12.80;99.90;;;;;;4942729;29;20288;-77
2021/08/24 05:55:17;;;;;;;7.90;7.17;;;12.80;99.90;;;;;;4940570;29;20854;-76
2021/08/24 05:57:43;;;;;;;8.90;7.43;;;13.00;99.90;;;;;;4943316;28;20448;-77
2021/08/24 06:00:09;;;;;;;9.33;8.23;;;13.10;99.90;;;;;;4940865;29;20651;-76
2021/08/24 06:02:36;;;;;;;8.47;7.13;;;13.20;99.90;;;;;;4944968;28;20256;-78
2021/08/24 06:05:02;;;;;;;9.03;8.13;;;13.30;99.90;;;;;;4936986;29;20486;-77
2021/08/24 06:07:28;;;;;;;10.40;8.50;;;13.40;99.90;;;;;;4941331;29;20519;-78
2021/08/24 06:09:54;;;;;;;12.00;8.27;;;13.60;99.90;;;;;;4943836;29;20536;-77
2021/08/24 06:12:19;;;;;;;9.90;7.77;;;13.70;99.90;;;;;;4935144;28;20540;-78
2021/08/24 06:14:45;;;;;;;10.57;8.03;;;13.80;99.90;;;;;;4936752;29;20213;-77
2021/08/24 06:17:11;;;;;;;9.70;8.70;;;13.90;99.90;;;;;;4935344;29;21535;-78
2021/08/24 06:19:37;;;;;;;9.50;7.40;;;14.00;99.90;;;;;;4949692;28;20196;-78
2021/08/24 06:22:03;;;;;;;9.03;7.50;;;14.20;99.90;;;;;;4943991;28;20265;-79
2021/08/24 06:24:30;;;;;;;10.03;8.03;;;14.30;99.90;;;;;;4937505;29;20713;-77
2021/08/24 06:26:57;;;;;;;7.23;6.53;;;14.30;99.90;;;;;;4948686;29;20440;-78
2021/08/24 06:29:22;;;;;;;12.23;8.13;;;14.40;99.90;;;;;;4940660;29;20512;-78
2021/08/24 06:31:51;;;;;;;12.37;8.37;;;14.40;99.90;;;;;;4951260;28;20616;-78
2021/08/24 06:34:17;;;;;;;7.90;7.10;;;14.50;99.90;;;;;;4936637;29;20205;-79
2021/08/24 06:36:43;;;;;;;8.10;7.40;;;14.50;99.90;;;;;;4940228;28;20535;-78
2021/08/24 06:39:09;;;;;;;22.93;7.10;;;14.60;99.90;;;;;;4933439;29;20537;-78
2021/08/24 06:41:36;;;;;;;7.57;5.90;;;14.70;99.90;;;;;;4949054;29;20233;-79
2021/08/24 06:44:03;;;;;;;6.40;5.80;;;14.70;99.90;;;;;;4950001;28;20532;-79
2021/08/24 06:46:29;;;;;;;6.63;5.70;;;14.80;99.90;;;;;;4937627;29;20481;-77
2021/08/24 06:48:55;;;;;;;5.67;5.20;;;14.80;99.90;;;;;;4935719;29;20416;-77
2021/08/24 06:51:20;;;;;;;7.70;5.90;;;14.80;99.90;;;;;;4932890;29;20237;-78
2021/08/24 06:53:46;;;;;;;7.53;6.77;;;14.80;99.90;;;;;;4954697;29;20219;-78
2021/08/24 06:56:12;;;;;;;7.37;5.27;;;14.80;99.90;;;;;;4932098;28;20189;-78
2021/08/24 06:58:42;;;;;;;6.93;4.90;;;14.80;99.90;;;;;;4936863;29;20175;-78
2021/08/24 07:01:31;;;;;;;5.60;5.17;;;14.90;99.90;;;;;;4939628;29;20469;-79
2021/08/24 07:03:57;;;;;;;7.23;5.47;;;14.80;99.90;;;;;;4935836;28;20445;-78
2021/08/24 07:06:22;;;;;;;5.80;5.20;;;14.80;99.90;;;;;;4938753;29;20443;-78
2021/08/24 07:08:53;;;;;;;6.30;5.60;;;14.80;99.90;;;;;;4955794;28;20715;-78
2021/08/24 07:11:19;;;;;;;5.50;5.00;;;14.90;99.90;;;;;;4944895;28;20307;-78
2021/08/24 07:13:44;;;;;;;5.80;5.30;;;14.90;99.90;;;;;;4946492;28;20519;-78
2021/08/24 07:16:10;;;;;;;6.33;5.70;;;15.00;99.90;;;;;;4937200;29;20739;-78
2021/08/24 07:18:36;;;;;;;10.50;5.47;;;15.10;99.90;;;;;;4936989;28;20185;-78
2021/08/24 07:21:02;;;;;;;6.20;5.47;;;15.20;99.90;;;;;;4934669;29;20197;-78
2021/08/24 07:23:28;;;;;;;6.37;5.87;;;15.20;99.90;;;;;;4941903;28;20235;-77
2021/08/24 07:25:53;;;;;;;6.80;5.47;;;15.20;99.90;;;;;;4933947;29;20592;-79
2021/08/24 07:28:19;;;;;;;11.00;6.00;;;15.20;99.90;;;;;;4940205;29;20548;-78
2021/08/24 07:30:48;;;;;;;8.57;5.70;;;15.20;99.90;;;;;;4935774;29;20200;-78
2021/08/24 07:33:14;;;;;;;7.30;6.60;;;15.10;99.90;;;;;;4937099;29;20243;-78
2021/08/24 07:35:40;;;;;;;6.17;5.57;;;15.10;99.90;;;;;;4948893;28;20448;-77
2021/08/24 07:38:05;;;;;;;6.27;5.67;;;15.10;99.90;;;;;;4948438;29;20961;-79
2021/08/24 07:40:32;;;;;;;6.97;4.93;;;15.10;99.90;;;;;;4951053;28;20208;-78
2021/08/24 07:42:57;;;;;;;10.30;6.27;;;15.10;99.90;;;;;;4940291;28;20642;-78
2021/08/24 07:45:23;;;;;;;8.63;6.17;;;15.10;99.90;;;;;;4949315;29;20479;-78
2021/08/24 07:47:48;;;;;;;8.57;6.30;;;15.10;99.90;;;;;;4950316;28;20643;-78
2021/08/24 07:50:15;;;;;;;6.80;5.87;;;15.20;99.90;;;;;;4951847;29;20280;-77
2021/08/24 07:52:41;;;;;;;7.40;5.50;;;15.20;99.90;;;;;;4918356;29;20217;-78
2021/08/24 07:55:07;;;;;;;7.23;5.33;;;15.20;99.90;;;;;;4928798;29;20449;-78
2021/08/24 07:57:33;;;;;;;9.80;7.00;;;15.30;99.90;;;;;;4935434;29;20425;-77
2021/08/24 07:59:59;;;;;;;7.20;6.47;;;15.40;99.90;;;;;;4939977;29;20490;-76
2021/08/24 08:02:24;;;;;;;6.00;5.50;;;15.40;99.90;;;;;;4934804;29;20232;-77
2021/08/24 08:04:50;;;;;;;14.63;7.63;;;15.40;99.90;;;;;;4933505;29;20714;-77
2021/08/24 08:07:16;;;;;;;8.50;6.53;;;15.50;99.90;;;;;;4945912;29;20243;-74
2021/08/24 08:09:42;;;;;;;9.07;6.97;;;15.60;99.90;;;;;;4933163;28;20194;-74
2021/08/24 08:12:09;;;;;;;6.70;5.90;;;15.60;99.90;;;;;;4934846;29;20220;-76
2021/08/24 08:14:36;;;;;;;7.87;7.07;;;15.70;99.90;;;;;;4934805;29;20440;-75
2021/08/24 08:17:02;;;;;;;9.70;7.20;;;15.70;99.90;;;;;;4943591;29;20447;-75
2021/08/24 08:19:27;;;;;;;9.73;7.40;;;15.80;99.90;;;;;;4953844;28;20432;-75
2021/08/24 08:21:53;;;;;;;9.90;7.43;;;15.80;99.90;;;;;;4947885;28;20563;-74
2021/08/24 08:24:19;;;;;;;10.07;6.20;;;15.90;99.90;;;;;;4953902;28;20240;-76
2021/08/24 08:26:44;;;;;;;5.80;5.30;;;16.20;99.90;;;;;;4938421;28;20185;-76
2021/08/24 08:29:11;;;;;;;5.40;4.97;;;16.30;99.90;;;;;;4937632;28;20217;-76
2021/08/24 08:31:43;;;;;;;6.83;5.23;;;16.20;99.90;;;;;;4930381;29;20222;-76
2021/08/24 08:34:10;;;;;;;7.77;5.27;;;16.40;99.90;;;;;;4927612;29;20444;-76
2021/08/24 08:36:36;;;;;;;5.37;4.97;;;16.40;99.90;;;;;;4943215;29;20436;-76
2021/08/24 08:39:02;;;;;;;5.50;4.97;;;16.50;99.90;;;;;;4936624;29;20436;-77
2021/08/24 08:41:41;;;;;;;4.97;4.57;;;16.40;99.90;;;;;;4931547;28;20216;-76
2021/08/24 08:44:29;;;;;;;10.03;5.00;;;16.70;99.90;;;;;;4945671;29;20944;-76
2021/08/24 08:47:06;;;;;;;4.37;3.93;;;17.10;99.90;;;;;;4953027;28;20417;-76
2021/08/24 08:50:01;;;;;;;5.80;3.93;;;17.50;99.90;;;;;;4943422;28;20443;-75
2021/08/24 08:52:50;;;;;;;4.43;4.03;;;17.70;99.90;;;;;;4951490;29;20483;-76
2021/08/24 08:55:41;;;;;;;12.20;4.27;;;17.80;99.90;;;;;;4947338;29;20443;-76
2021/08/24 08:58:49;;;;;;;4.30;3.80;;;17.70;99.90;;;;;;4953108;28;20416;-76
2021/08/24 09:01:32;;;;;;;3.50;3.20;;;17.50;99.90;;;;;;4944754;29;20479;-76
2021/08/24 09:04:09;;;;;;;4.67;3.40;;;17.20;99.90;;;;;;4948122;28;20501;-76
2021/08/24 09:06:36;;;;;;;3.33;3.10;;;17.00;99.90;;;;;;4926520;29;20446;-75
2021/08/24 09:09:05;;;;;;;4.00;3.70;;;16.90;99.90;;;;;;4952299;28;20409;-76
2021/08/24 09:11:40;;;;;;;7.10;3.90;;;16.80;99.90;;;;;;4936574;29;20478;-77
2021/08/24 09:14:39;;;;;;;3.87;3.57;;;16.80;99.90;;;;;;4953418;28;20539;-76
2021/08/24 09:17:26;;;;;;;4.23;3.83;;;16.60;99.90;;;;;;4945818;28;20434;-77
2021/08/24 09:20:01;;;;;;;8.03;3.93;;;16.60;99.90;;;;;;4950919;28;20408;-76
2021/08/24 09:22:27;;;;;;;5.70;3.07;;;16.60;99.90;;;;;;4947217;28;20542;-76
2021/08/24 09:24:53;;;;;;;3.40;2.93;;;16.70;99.90;;;;;;4948336;28;20504;-76
2021/08/24 09:27:37;;;;;;;4.90;4.43;;;16.80;99.90;;;;;;4946652;29;20200;-76
2021/08/24 09:30:04;;;;;;;5.37;3.47;;;16.80;99.90;;;;;;4953177;28;20408;-76
2021/08/24 09:32:31;;;;;;;3.50;3.20;;;16.70;99.90;;;;;;4937373;28;20481;-75
2021/08/24 09:35:14;;;;;;;5.53;3.97;;;16.80;99.90;;;;;;4935030;29;20435;-75
2021/08/24 09:37:41;;;;;;;4.53;3.73;;;16.80;99.90;;;;;;4946801;28;20444;-75
2021/08/24 09:40:11;;;;;;;4.07;3.70;;;16.70;99.90;;;;;;4929884;29;20545;-76
2021/08/24 09:42:43;;;;;;;4.10;3.70;;;16.80;99.90;;;;;;4946812;28;20530;-76
2021/08/24 09:45:18;;;;;;;6.70;3.73;;;16.70;99.90;;;;;;4953259;28;20428;-75
2021/08/24 09:47:44;;;;;;;3.77;3.47;;;16.70;99.90;;;;;;4946734;28;20967;-76
2021/08/24 09:50:15;;;;;;;5.10;3.77;;;16.90;99.90;;;;;;4953186;28;20905;-77
2021/08/24 09:52:47;;;;;;;4.10;3.63;;;16.90;99.90;;;;;;4949734;28;20471;-76
2021/08/24 09:55:23;;;;;;;3.53;3.23;;;17.00;99.90;;;;;;4934162;28;20561;-75
2021/08/24 09:58:03;;;;;;;5.40;2.97;;;17.00;99.90;;;;;;4946264;29;20446;-76
2021/08/24 10:00:56;;;;;;;7.90;4.83;;;16.90;99.90;;;;;;4918338;29;20406;-76
2021/08/24 10:03:33;;;;;;;3.63;3.33;;;16.90;99.90;;;;;;4922858;29;20449;-76
2021/08/24 10:06:27;;;;;;;4.00;3.70;;;16.80;99.90;;;;;;4950702;28;20446;-76
2021/08/24 10:08:55;;;;;;;7.80;3.30;;;16.90;99.90;;;;;;4948095;28;20441;-75
2021/08/24 10:11:31;;;;;;;4.30;3.30;;;16.90;99.90;;;;;;4944777;29;20447;-75
2021/08/24 10:14:18;;;;;;;3.77;3.43;;;16.80;99.90;;;;;;4952497;28;20499;-75
2021/08/24 10:16:45;;;;;;;4.10;3.80;;;16.90;99.90;;;;;;4949881;28;20471;-76
2021/08/24 10:19:16;;;;;;;6.73;6.13;;;16.90;99.90;;;;;;4953287;28;20424;-77
2021/08/24 10:21:50;;;;;;;5.53;4.87;;;16.90;99.90;;;;;;4952068;29;20440;-76
2021/08/24 10:24:27;;;;;;;6.63;4.80;;;16.80;99.90;;;;;;4955992;28;20410;-75
2021/08/24 10:26:58;;;;;;;4.20;3.80;;;17.00;99.90;;;;;;4942334;29;20537;-76
2021/08/24 10:29:32;;;;;;;4.93;4.17;;;17.00;99.90;;;;;;4954647;29;20416;-76
2021/08/24 10:32:07;;;;;;;4.83;3.73;;;17.10;99.90;;;;;;4949843;28;20570;-76
2021/08/24 10:34:40;;;;;;;3.90;3.60;;;17.10;99.90;;;;;;4946650;28;20449;-76
2021/08/24 10:37:24;;;;;;;4.27;3.90;;;17.20;99.90;;;;;;4949668;28;20535;-76
2021/08/24 10:40:14;;;;;;;4.43;4.03;;;17.20;99.90;;;;;;4953232;28;20416;-76
2021/08/24 10:42:56;;;;;;;4.23;3.90;;;17.30;99.90;;;;;;4949347;28;20496;-76
2021/08/24 10:45:22;;;;;;;5.70;4.50;;;17.20;99.90;;;;;;4954573;29;20432;-76
2021/08/24 10:47:56;;;;;;;4.60;4.20;;;17.20;99.90;;;;;;4949420;28;20915;-76
2021/08/24 10:50:33;;;;;;;4.13;3.80;;;17.20;99.90;;;;;;4955692;28;20235;-76
2021/08/24 10:53:08;;;;;;;4.20;3.80;;;17.20;99.90;;;;;;4952292;28;20586;-76
2021/08/24 10:55:40;;;;;;;4.90;3.63;;;17.20;99.90;;;;;;4949995;28;20447;-76
2021/08/24 10:58:30;;;;;;;4.10;3.70;;;17.20;99.90;;;;;;4947940;29;20825;-76
2021/08/24 11:01:19;;;;;;;3.83;3.53;;;17.10;99.90;;;;;;4917355;29;20434;-76
2021/08/24 11:03:57;;;;;;;5.30;3.90;;;17.20;99.90;;;;;;4935510;28;20448;-76
2021/08/24 11:06:34;;;;;;;7.47;4.13;;;17.30;99.90;;;;;;4955293;28;20408;-75
2021/08/24 11:09:05;;;;;;;6.50;3.20;;;17.30;99.90;;;;;;4946588;28;20445;-76
2021/08/24 11:12:07;;;;;;;7.53;4.13;;;17.30;99.90;;;;;;4935670;29;20452;-76
2021/08/24 11:14:50;;;;;;;5.90;4.20;;;17.30;99.90;;;;;;4949082;28;20944;-76
2021/08/24 11:17:47;;;;;;;6.00;4.57;;;17.30;99.90;;;;;;4955375;28;20921;-73
2021/08/24 11:20:23;;;;;;;4.53;4.13;;;17.30;99.90;;;;;;4945027;28;20429;-76
2021/08/24 11:23:10;;;;;;;4.00;3.60;;;17.30;99.90;;;;;;4954667;28;20451;-76
2021/08/24 11:25:41;;;;;;;4.87;4.57;;;17.30;99.90;;;;;;4936995;28;20443;-75
2021/08/24 11:28:12;;;;;;;3.77;3.47;;;17.30;99.90;;;;;;4953522;29;20412;-76
2021/08/24 11:30:52;;;;;;;3.83;3.43;;;17.40;99.90;;;;;;4945544;28;20442;-75
2021/08/24 11:33:24;;;;;;;4.77;4.30;;;17.40;99.90;;;;;;4916508;29;20824;-76
2021/08/24 11:36:18;;;;;;;6.93;4.10;;;17.50;99.90;;;;;;4935112;29;20441;-75
2021/08/24 11:38:56;;;;;;;4.03;3.70;;;17.50;99.90;;;;;;4947481;29;20420;-76
2021/08/24 11:41:25;;;;;;;4.23;3.83;;;17.60;99.90;;;;;;4943441;28;20974;-76
2021/08/24 11:44:02;;;;;;;6.40;3.57;;;17.70;99.90;;;;;;4916282;29;20422;-76
2021/08/24 11:46:37;;;;;;;5.43;3.73;;;17.70;99.90;;;;;;4929937;29;20443;-75
2021/08/24 11:49:07;;;;;;;3.77;3.43;;;17.60;99.90;;;;;;4954529;28;20407;-75
2021/08/24 11:51:35;;;;;;;4.03;3.60;;;17.70;99.90;;;;;;4950427;28;20464;-76
2021/08/24 11:54:24;;;;;;;5.07;4.03;;;17.60;99.90;;;;;;4948301;28;20472;-76
2021/08/24 11:56:58;;;;;;;4.63;4.10;;;17.60;99.90;;;;;;4942529;28;20850;-76
2021/08/24 11:59:30;;;;;;;5.37;3.97;;;17.50;99.90;;;;;;4954374;28;20435;-76
2021/08/24 12:01:55;;;;;;;5.80;4.07;;;17.50;99.90;;;;;;4933575;29;20458;-75
2021/08/24 12:04:25;;;;;;;3.97;3.60;;;17.50;99.90;;;;;;4948146;28;21004;-76
2021/08/24 12:07:07;;;;;;;4.20;3.80;;;17.50;99.90;;;;;;4953189;28;20608;-75
2021/08/24 12:09:44;;;;;;;3.90;3.60;;;17.50;99.90;;;;;;4951455;29;20400;-76
2021/08/24 12:12:17;;;;;;;4.33;4.03;;;17.40;99.90;;;;;;4949524;28;20547;-77
2021/08/24 12:14:55;;;;;;;4.97;4.30;;;17.50;99.90;;;;;;4935495;29;20528;-76
2021/08/24 12:17:27;;;;;;;5.07;4.60;;;17.60;99.90;;;;;;4948085;29;20832;-76
2021/08/24 12:20:04;;;;;;;7.50;5.87;;;17.60;99.90;;;;;;4947725;28;20447;-76
2021/08/24 12:22:52;;;;;;;6.00;4.60;;;17.80;99.90;;;;;;4954075;28;20494;-76
2021/08/24 12:25:40;;;;;;;6.67;5.00;;;18.10;99.90;;;;;;4934667;28;20434;-76
2021/08/24 12:28:17;;;;;;;4.63;3.67;;;18.30;99.90;;;;;;4953246;29;20804;-76
2021/08/24 12:30:58;;;;;;;7.47;3.93;;;18.60;99.90;;;;;;4952646;28;20582;-77
2021/08/24 12:33:44;;;;;;;4.77;4.37;;;19.00;99.90;;;;;;4948216;28;20477;-75
2021/08/24 12:36:19;;;;;;;3.60;3.40;;;19.20;99.90;;;;;;4947470;28;20444;-77
2021/08/24 12:38:55;;;;;;;4.83;4.47;;;19.10;99.90;;;;;;4953528;28;20450;-76
2021/08/24 12:41:35;;;;;;;7.10;3.27;;;19.10;99.90;;;;;;4938750;28;20489;-78
2021/08/24 12:44:13;;;;;;;5.20;4.03;;;19.00;99.90;;;;;;4953535;28;20954;-75
2021/08/24 12:46:50;;;;;;;4.77;4.30;;;18.60;99.90;;;;;;4946405;28;20444;-75
2021/08/24 12:49:17;;;;;;;4.13;3.70;;;18.50;99.90;;;;;;4953567;28;20408;-77
2021/08/24 12:51:57;;;;;;;7.27;4.03;;;18.30;99.90;;;;;;4943515;28;20519;-77
2021/08/24 12:54:29;;;;;;;4.80;3.73;;;18.10;99.90;;;;;;4953622;28;20423;-76
2021/08/24 12:57:04;;;;;;;4.37;3.97;;;18.10;99.90;;;;;;4939375;29;20519;-77
2021/08/24 12:59:34;;;;;;;7.00;3.40;;;18.00;99.90;;;;;;4953463;28;20495;-76
2021/08/24 13:02:32;;;;;;;4.80;4.30;;;17.90;99.90;;;;;;4946398;29;20444;-76
2021/08/24 13:05:19;;;;;;;9.03;3.87;;;17.90;99.90;;;;;;4915545;29;20498;-75
2021/08/24 13:07:57;;;;;;;4.70;4.20;;;17.80;99.90;;;;;;4933853;29;20460;-76
2021/08/24 13:10:34;;;;;;;4.30;4.00;;;17.80;99.90;;;;;;4948322;28;20466;-76
2021/08/24 13:13:02;;;;;;;5.20;3.77;;;17.80;99.90;;;;;;4947168;28;20475;-77
2021/08/24 13:15:28;;;;;;;5.27;4.70;;;17.90;99.90;;;;;;4953450;28;20412;-77
2021/08/24 13:18:17;;;;;;;3.90;3.60;;;17.90;99.90;;;;;;4947026;28;20467;-76
2021/08/24 13:20:44;;;;;;;4.47;4.07;;;18.00;99.90;;;;;;4953089;28;20179;-77
2021/08/24 13:23:21;;;;;;;4.13;3.83;;;18.00;99.90;;;;;;4949425;28;20510;-76
2021/08/24 13:25:54;;;;;;;6.50;5.83;;;18.10;99.90;;;;;;4925307;29;20441;-76
2021/08/24 13:28:24;;;;;;;4.10;3.73;;;18.20;99.90;;;;;;4947033;28;20435;-77
2021/08/24 13:30:57;;;;;;;5.10;4.07;;;18.40;99.90;;;;;;4956815;28;20448;-77
2021/08/24 13:33:33;;;;;;;4.17;3.77;;;18.60;99.90;;;;;;4950777;28;20472;-77
2021/08/24 13:36:07;;;;;;;7.50;3.60;;;18.80;99.90;;;;;;4941703;29;20435;-77
2021/08/24 13:38:36;;;;;;;4.03;3.63;;;18.90;99.90;;;;;;4955792;28;20411;-77
2021/08/24 13:41:09;;;;;;;7.17;3.60;;;18.90;99.90;;;;;;4937643;29;20976;-77
2021/08/24 13:43:40;;;;;;;4.20;3.90;;;18.80;99.90;;;;;;4956385;28;20416;-77
2021/08/24 13:46:06;;;;;;;5.97;3.30;;;18.80;99.90;;;;;;4947183;28;20439;-77
2021/08/24 13:48:31;;;;;;;4.07;3.50;;;18.70;99.90;;;;;;4956402;28;20408;-77
2021/08/24 13:51:06;;;;;;;4.37;3.33;;;18.60;99.90;;;;;;4950538;28;20212;-77
2021/08/24 13:53:35;;;;;;;3.57;3.27;;;18.60;99.90;;;;;;4956574;28;20598;-77
2021/08/24 13:56:06;;;;;;;4.07;3.77;;;18.60;99.90;;;;;;4937958;29;20438;-77
2021/08/24 13:58:32;;;;;;;4.10;3.80;;;18.60;99.90;;;;;;4918045;29;20416;-77
2021/08/24 14:01:13;;;;;;;3.33;3.13;;;18.60;99.90;;;;;;4931543;29;20456;-77
2021/08/24 14:03:55;;;;;;;3.83;3.20;;;18.50;99.90;;;;;;4956576;28;20176;-77
2021/08/24 14:06:32;;;;;;;5.03;4.47;;;18.60;99.90;;;;;;4948284;28;20482;-76
2021/08/24 14:09:03;;;;;;;4.20;3.90;;;18.70;99.90;;;;;;4954937;29;20455;-77
2021/08/24 14:11:30;;;;;;;4.50;3.70;;;18.80;99.90;;;;;;4950872;28;20519;-77
2021/08/24 14:13:56;;;;;;;4.43;4.03;;;19.00;99.90;;;;;;4956044;28;20468;-77
2021/08/24 14:16:29;;;;;;;4.23;3.83;;;19.20;99.90;;;;;;4952144;28;20769;-77
2021/08/24 14:19:00;;;;;;;4.10;3.80;;;19.50;99.90;;;;;;4950190;28;20277;-77
2021/08/24 14:21:28;;;;;;;3.60;3.40;;;19.70;99.90;;;;;;4950030;28;20457;-77
2021/08/24 14:23:58;;;;;;;5.93;4.23;;;19.80;99.90;;;;;;4956100;28;20845;-77
2021/08/24 14:26:34;;;;;;;4.53;4.13;;;19.70;99.90;;;;;;4944393;28;20951;-77
2021/08/24 14:29:02;;;;;;;4.00;3.70;;;19.70;99.90;;;;;;4956095;28;21147;-77
2021/08/24 14:31:33;;;;;;;5.10;4.67;;;19.80;99.90;;;;;;4950893;28;20463;-77
2021/08/24 14:34:20;;;;;;;4.37;3.97;;;19.90;99.90;;;;;;4949424;29;20480;-77
2021/08/24 14:36:59;;;;;;;4.17;3.77;;;20.00;99.90;;;;;;4939491;28;20510;-77
2021/08/24 14:39:30;;;;;;;5.03;4.40;;;19.90;99.90;;;;;;4917275;29;20478;-77
2021/08/24 14:42:08;;;;;;;4.93;4.53;;;19.80;99.90;;;;;;4937692;29;20515;-77
2021/08/24 14:44:37;;;;;;;5.43;4.90;;;19.70;99.90;;;;;;4916121;29;20470;-77
2021/08/24 14:47:08;;;;;;;5.03;4.63;;;19.70;99.90;;;;;;4931788;29;20505;-77
2021/08/24 14:49:48;;;;;;;5.47;4.93;;;19.60;99.90;;;;;;4949326;28;20440;-77
2021/08/24 14:52:16;;;;;;;6.90;5.27;;;19.60;99.90;;;;;;4952129;29;20448;-77
2021/08/24 14:54:49;;;;;;;6.00;4.90;;;19.50;99.90;;;;;;4952062;29;20428;-77
2021/08/24 14:57:27;;;;;;;8.93;4.70;;;19.50;99.90;;;;;;4950280;28;20493;-77
2021/08/24 15:00:11;;;;;;;4.87;4.47;;;19.40;99.90;;;;;;4947818;29;20487;-77
2021/08/24 15:02:47;;;;;;;5.20;4.53;;;19.40;99.90;;;;;;4954975;28;20483;-77
2021/08/24 15:05:39;;;;;;;5.10;4.70;;;19.40;99.90;;;;;;4950112;29;20420;-77
2021/08/24 15:08:22;;;;;;;6.10;5.27;;;19.30;99.90;;;;;;4951639;28;20424;-77
2021/08/24 15:11:26;;;;;;;4.93;4.47;;;19.30;99.90;;;;;;4925069;29;20448;-77
2021/08/24 15:14:08;;;;;;;5.30;4.70;;;19.30;99.90;;;;;;4934241;29;21105;-76
2021/08/24 15:16:35;;;;;;;4.40;4.10;;;19.30;99.90;;;;;;4954759;28;20848;-76
2021/08/24 15:19:04;;;;;;;5.20;4.70;;;19.40;99.90;;;;;;4951218;28;20451;-76
2021/08/24 15:21:51;;;;;;;5.40;4.90;;;19.40;99.90;;;;;;4948714;28;20547;-77
2021/08/24 15:24:36;;;;;;;8.10;5.23;;;19.30;99.90;;;;;;4948954;28;20436;-77
2021/08/24 15:27:23;;;;;;;5.07;4.67;;;19.20;99.90;;;;;;4938510;28;20444;-76
2021/08/24 15:30:18;;;;;;;5.17;4.67;;;19.20;99.90;;;;;;4950800;28;20440;-77
2021/08/24 15:32:47;;;;;;;5.77;5.23;;;19.20;99.90;;;;;;4952663;29;20471;-77
2021/08/24 15:35:25;;;;;;;6.43;5.00;;;19.30;99.90;;;;;;4943024;28;20479;-77
2021/08/24 15:38:03;;;;;;;7.00;4.80;;;19.30;99.90;;;;;;4948283;29;20444;-76
2021/08/24 15:40:31;;;;;;;5.97;5.37;;;19.30;99.90;;;;;;4938874;28;20437;-77
2021/08/24 15:42:57;;;;;;;5.93;5.40;;;19.30;99.90;;;;;;4954410;29;20495;-77
2021/08/24 15:45:28;;;;;;;8.47;4.73;;;19.30;99.90;;;;;;4948436;28;20443;-77
2021/08/24 15:47:57;;;;;;;5.60;4.77;;;19.30;99.90;;;;;;4954434;28;20188;-76
2021/08/24 15:50:25;;;;;;;5.80;5.30;;;19.20;99.90;;;;;;4950044;28;20526;-77
2021/08/24 15:52:50;;;;;;;6.60;5.50;;;19.10;99.90;;;;;;4948106;28;20539;-77
2021/08/24 15:55:35;;;;;;;6.30;5.80;;;19.10;99.90;;;;;;4949139;29;20420;-77
2021/08/24 15:58:00;;;;;;;9.60;8.00;;;18.90;99.90;;;;;;4916201;29;20175;-77
2021/08/24 16:00:30;;;;;;;10.93;5.87;;;18.90;99.90;;;;;;4916088;29;20943;-77
2021/08/24 16:02:57;;;;;;;6.83;6.13;;;18.80;99.90;;;;;;4934850;29;20188;-77
2021/08/24 16:05:24;;;;;;;6.83;6.23;;;18.70;99.90;;;;;;4954236;28;20438;-77
2021/08/24 16:07:54;;;;;;;6.60;5.90;;;18.70;99.90;;;;;;4947925;28;20451;-77
2021/08/24 16:10:22;;;;;;;7.73;6.50;;;18.60;99.90;;;;;;4951815;28;20786;-77
2021/08/24 16:12:48;;;;;;;7.40;6.70;;;18.60;99.90;;;;;;4939493;29;20468;-77
2021/08/24 16:15:13;;;;;;;7.93;5.97;;;18.60;99.90;;;;;;4954031;28;20416;-77
2021/08/24 16:17:39;;;;;;;7.00;6.40;;;18.60;99.90;;;;;;4950404;28;20507;-77
2021/08/24 16:20:06;;;;;;;6.93;6.33;;;18.60;99.90;;;;;;4954003;28;20212;-77
2021/08/24 16:22:45;;;;;;;8.10;7.00;;;18.60;99.90;;;;;;4946174;28;20208;-77
2021/08/24 16:25:24;;;;;;;7.53;6.80;;;18.50;99.90;;;;;;4953252;29;20412;-77
2021/08/24 16:27:50;;;;;;;6.90;6.40;;;18.60;99.90;;;;;;4944876;29;20443;-77
2021/08/24 16:30:20;;;;;;;6.97;6.27;;;18.60;99.90;;;;;;4953866;28;20440;-77
2021/08/24 16:32:46;;;;;;;8.73;7.70;;;18.50;99.90;;;;;;4949652;28;20541;-77
2021/08/24 16:35:45;;;;;;;9.00;6.70;;;18.50;99.90;;;;;;4947789;28;20498;-77
2021/08/24 16:38:14;;;;;;;7.53;6.60;;;18.40;99.90;;;;;;4942685;28;20502;-77
2021/08/24 16:40:43;;;;;;;6.60;6.10;;;18.40;99.90;;;;;;4948220;28;20533;-76
2021/08/24 16:43:10;;;;;;;8.20;6.90;;;18.40;99.90;;;;;;4949927;28;20941;-77
2021/08/24 16:45:35;;;;;;;7.90;7.20;;;18.40;99.90;;;;;;4947555;28;20443;-77
2021/08/24 16:48:01;;;;;;;8.17;7.27;;;18.40;99.90;;;;;;4947571;28;20806;-77
2021/08/24 16:50:28;;;;;;;6.83;6.23;;;18.40;99.90;;;;;;4953586;28;20181;-77
2021/08/24 16:52:54;;;;;;;11.10;6.40;;;18.40;99.90;;;;;;4949587;28;20212;-77
2021/08/24 16:55:22;;;;;;;6.47;5.87;;;18.50;99.90;;;;;;4946468;28;20446;-76
2021/08/24 16:57:48;;;;;;;7.07;6.53;;;18.50;99.90;;;;;;4938400;29;20190;-77
2021/08/24 17:00:16;;;;;;;6.87;6.27;;;18.50;99.90;;;;;;4947481;28;20499;-77
2021/08/24 17:02:42;;;;;;;8.60;7.27;;;18.50;99.90;;;;;;4952367;28;20567;-77
2021/08/24 17:05:08;;;;;;;7.83;6.93;;;18.50;99.90;;;;;;4943513;28;20524;-77
2021/08/24 17:07:35;;;;;;;9.67;8.77;;;18.50;99.90;;;;;;4953277;28;20730;-77
2021/08/24 17:10:02;;;;;;;8.50;7.73;;;18.50;99.90;;;;;;4947225;28;20440;-77
2021/08/24 17:12:27;;;;;;;8.60;6.90;;;18.50;99.90;;;;;;4937496;28;20564;-77
2021/08/24 17:14:53;;;;;;;11.20;7.03;;;18.40;99.90;;;;;;4945795;29;20535;-77
2021/08/24 17:17:18;;;;;;;9.43;7.23;;;18.40;99.90;;;;;;4953168;28;20521;-77
2021/08/24 17:19:44;;;;;;;9.20;8.30;;;18.40;99.90;;;;;;4946971;28;20188;-77
2021/08/24 17:22:09;;;;;;;9.67;7.00;;;18.30;99.90;;;;;;4953239;28;20196;-77
2021/08/24 17:24:35;;;;;;;8.47;7.67;;;18.30;99.90;;;;;;4949379;28;20215;-77
2021/08/24 17:27:00;;;;;;;8.93;7.67;;;18.20;99.90;;;;;;4935821;28;20216;-77
2021/08/24 17:29:26;;;;;;;9.53;7.13;;;18.20;99.90;;;;;;4949142;28;20267;-77
2021/08/24 17:31:54;;;;;;;7.87;7.17;;;18.20;99.90;;;;;;4949120;29;20601;-77
2021/08/24 17:34:20;;;;;;;9.50;7.20;;;18.10;99.90;;;;;;4953183;28;20200;-77
2021/08/24 17:36:46;;;;;;;8.37;7.60;;;18.10;99.90;;;;;;4943022;28;20440;-77
2021/08/24 17:39:12;;;;;;;9.93;7.60;;;18.10;99.90;;;;;;4953111;28;20479;-77
2021/08/24 17:41:38;;;;;;;8.20;7.40;;;18.00;99.90;;;;;;4937503;28;20487;-77